Time;durP1;ratioP1;P1;durP2;ratioP2;P2;SDS_P1;SDS_P2;PMS_P1;PMS_P2;Temp;Humidity;BMP_temperature;BMP_pressure;BME280_temperature;BME280_humidity;BME280_pressure;Samples;Min_cycle;Max_cycle;Signal;HPM_P1;HPM_P2
2021/03/22 00:00:57;;;;;;;29.10;3.92;;;;;;;5.04;71.42;102056.09;5021824;28;20123;-67
2021/03/22 00:03:25;;;;;;;24.50;3.92;;;;;;;5.03;71.44;102058.63;5021279;28;20064;-66
2021/03/22 00:05:52;;;;;;;20.83;3.70;;;;;;;4.94;71.90;102067.84;5024463;28;20079;-67
2021/03/22 00:08:19;;;;;;;20.52;3.70;;;;;;;4.93;71.78;102058.41;5019023;28;20045;-63
2021/03/22 00:10:46;;;;;;;31.02;3.88;;;;;;;4.84;72.67;102058.16;5021401;28;20056;-67
2021/03/22 00:13:13;;;;;;;26.98;3.40;;;;;;;4.76;72.88;102054.50;5021079;28;20419;-64
2021/03/22 00:15:40;;;;;;;27.42;4.72;;;;;;;4.78;73.05;102055.41;5017871;28;20093;-67
2021/03/22 00:18:09;;;;;;;32.13;4.53;;;;;;;4.78;72.93;102058.00;5021079;28;20051;-65
2021/03/22 00:20:36;;;;;;;19.80;2.80;;;;;;;4.74;73.44;102061.34;5017485;28;20524;-67
2021/03/22 00:23:02;;;;;;;25.33;3.65;;;;;;;4.69;73.45;102052.59;5022091;28;20107;-67
2021/03/22 00:25:28;;;;;;;24.17;5.20;;;;;;;4.71;73.49;102061.25;5024916;28;20057;-66
2021/03/22 00:27:54;;;;;;;26.50;3.70;;;;;;;4.74;73.49;102061.34;5024703;28;20136;-66
2021/03/22 00:30:24;;;;;;;29.08;3.92;;;;;;;4.76;73.29;102050.22;5026603;28;20058;-66
2021/03/22 00:32:50;;;;;;;22.38;3.75;;;;;;;4.78;72.28;102053.72;5020959;28;20219;-66
2021/03/22 00:35:16;;;;;;;32.20;5.25;;;;;;;4.77;72.83;102051.97;5016257;28;20095;-67
2021/03/22 00:37:43;;;;;;;23.48;3.83;;;;;;;4.75;72.41;102047.59;5017359;28;20054;-68
2021/03/22 00:40:11;;;;;;;30.02;4.10;;;;;;;4.69;72.57;102050.91;5022910;28;20049;-67
2021/03/22 00:42:37;;;;;;;31.05;4.45;;;;;;;4.54;73.51;102048.78;5021771;28;20061;-65
2021/03/22 00:45:04;;;;;;;31.70;4.07;;;;;;;4.51;73.35;102048.72;5021597;28;20462;-67
2021/03/22 00:47:30;;;;;;;31.92;5.90;;;;;;;4.51;73.40;102048.72;5022461;28;20083;-66
2021/03/22 00:49:56;;;;;;;20.42;3.17;;;;;;;4.48;73.51;102049.50;5022546;28;20557;-67
2021/03/22 00:52:22;;;;;;;30.42;3.55;;;;;;;4.36;74.22;102050.00;5021747;28;20111;-66
2021/03/22 00:54:49;;;;;;;25.60;3.55;;;;;;;4.35;73.77;102052.56;5016967;28;20524;-67
2021/03/22 00:57:15;;;;;;;30.15;5.40;;;;;;;4.27;74.16;102048.91;5022921;28;20095;-66
2021/03/22 00:59:41;;;;;;;21.60;4.25;;;;;;;4.24;74.90;102054.84;5022899;28;20069;-67
2021/03/22 01:02:07;;;;;;;23.50;3.42;;;;;;;4.20;74.52;102045.28;5019558;28;20045;-67
2021/03/22 01:04:33;;;;;;;29.35;4.70;;;;;;;4.20;74.95;102040.13;5027119;28;20091;-66
2021/03/22 01:07:00;;;;;;;29.70;3.72;;;;;;;4.22;75.45;102050.47;5030132;28;20175;-65
2021/03/22 01:09:26;;;;;;;28.50;4.85;;;;;;;4.23;74.75;102047.94;5030163;28;20578;-66
2021/03/22 01:11:53;;;;;;;27.60;3.83;;;;;;;4.25;74.33;102046.25;5018119;28;20041;-65
2021/03/22 01:14:19;;;;;;;19.63;4.30;;;;;;;4.17;74.97;102037.44;5031448;28;20053;-65
2021/03/22 01:16:45;;;;;;;25.23;4.00;;;;;;;4.09;75.53;102042.41;5030226;28;20494;-66
2021/03/22 01:19:14;;;;;;;35.42;6.22;;;;;;;4.05;75.57;102048.28;5029543;28;20140;-66
2021/03/22 01:21:43;;;;;;;19.50;4.00;;;;;;;4.01;75.38;102038.72;5029607;28;20490;-66
2021/03/22 01:24:11;;;;;;;32.05;4.97;;;;;;;3.98;75.91;102034.34;5032244;28;20053;-67
2021/03/22 01:26:38;;;;;;;27.33;3.88;;;;;;;3.95;75.97;102028.25;5031371;28;20187;-66
2021/03/22 01:29:08;;;;;;;31.75;3.95;;;;;;;3.87;75.90;102028.91;5034166;28;20426;-66
2021/03/22 01:31:34;;;;;;;27.73;3.92;;;;;;;3.84;76.26;102023.66;5057509;22;20060;-65
2021/03/22 01:34:00;;;;;;;33.88;4.05;;;;;;;3.81;76.66;102033.00;5043633;28;20061;-64
2021/03/22 01:36:29;;;;;;;23.70;3.88;;;;;;;3.80;76.29;102037.25;5042109;28;20414;-64
2021/03/22 01:38:58;;;;;;;26.67;4.85;;;;;;;3.77;76.52;102026.00;5036233;28;20041;-64
2021/03/22 01:41:45;;;;;;;27.45;3.58;;;;;;;3.72;76.19;102026.75;5034406;28;20042;-63
2021/03/22 01:44:19;;;;;;;29.45;4.32;;;;;;;3.65;77.31;102019.66;5049722;28;20539;-64
2021/03/22 01:46:49;;;;;;;21.88;4.20;;;;;;;3.62;77.26;102021.25;5044527;28;20053;-64
2021/03/22 01:49:16;;;;;;;41.53;4.05;;;;;;;3.52;78.10;102014.97;5041559;28;20115;-64
2021/03/22 01:51:42;;;;;;;36.00;4.43;;;;;;;3.51;77.48;102018.38;5040574;28;20053;-64
2021/03/22 01:54:10;;;;;;;30.13;3.75;;;;;;;3.59;78.11;102022.06;5044428;28;20099;-64
2021/03/22 01:56:43;;;;;;;26.58;4.35;;;;;;;3.60;78.16;102015.19;5044134;28;20045;-62
2021/03/22 01:59:11;;;;;;;26.15;4.88;;;;;;;3.57;78.14;102019.44;5056270;28;20045;-64
2021/03/22 02:01:38;;;;;;;26.08;4.25;;;;;;;3.61;78.47;102016.94;5040703;28;20060;-64
2021/03/22 02:04:04;;;;;;;20.73;3.50;;;;;;;3.59;78.79;102016.91;5036064;28;20049;-64
2021/03/22 02:06:31;;;;;;;30.75;5.70;;;;;;;3.54;78.78;102003.03;5033889;28;20076;-64
2021/03/22 02:08:59;;;;;;;31.20;4.15;;;;;;;3.58;79.04;102005.75;5053542;28;20060;-64
2021/03/22 02:11:29;;;;;;;27.70;4.03;;;;;;;3.59;79.49;102016.91;5043605;28;20525;-64
2021/03/22 02:13:59;;;;;;;27.08;4.07;;;;;;;3.62;79.48;102017.00;5053759;28;20102;-64
2021/03/22 02:16:32;;;;;;;32.22;4.22;;;;;;;3.68;79.59;102017.19;5050659;28;20087;-64
2021/03/22 02:19:11;;;;;;;27.13;4.15;;;;;;;3.76;79.38;102022.56;5033873;28;20049;-64
2021/03/22 02:22:14;;;;;;;22.63;3.60;;;;;;;3.84;79.89;102022.81;5033614;28;20050;-64
2021/03/22 02:24:56;;;;;;;33.45;5.65;;;;;;;3.84;79.90;102017.66;5033850;28;20497;-64
2021/03/22 02:28:10;;;;;;;38.47;3.50;;;;;;;3.88;79.96;102027.19;5037544;28;20041;-64
2021/03/22 02:31:06;;;;;;;34.53;4.75;;;;;;;3.78;80.25;102023.50;5033930;28;20045;-64
2021/03/22 02:33:57;;;;;;;34.40;5.70;;;;;;;3.84;79.84;102021.09;5036524;28;20106;-65
2021/03/22 02:36:29;;;;;;;23.40;3.78;;;;;;;3.88;79.75;102016.91;5041313;28;20128;-64
2021/03/22 02:38:58;;;;;;;23.52;4.22;;;;;;;3.94;79.85;102021.34;5033177;28;20507;-65
2021/03/22 02:41:30;;;;;;;27.90;4.03;;;;;;;3.94;79.84;102017.09;5033442;28;20041;-65
2021/03/22 02:44:04;;;;;;;20.90;4.50;;;;;;;3.92;79.93;102015.28;5033276;28;20111;-64
2021/03/22 02:46:31;;;;;;;26.63;4.97;;;;;;;3.78;80.35;102010.63;5043066;28;20041;-64
2021/03/22 02:48:57;;;;;;;29.20;4.78;;;;;;;3.76;81.25;102009.69;5044325;28;20049;-64
2021/03/22 02:51:31;;;;;;;25.35;4.03;;;;;;;3.70;81.50;102006.94;5033238;28;20049;-65
2021/03/22 02:54:08;;;;;;;30.38;4.65;;;;;;;3.74;80.98;102001.06;5034921;28;20062;-65
2021/03/22 02:56:42;;;;;;;30.10;5.45;;;;;;;3.68;81.64;102001.75;5046500;28;20387;-65
2021/03/22 02:59:15;;;;;;;30.90;4.70;;;;;;;3.61;81.65;102001.50;5035171;28;20495;-65
2021/03/22 03:01:44;;;;;;;21.40;4.10;;;;;;;3.52;81.61;102004.69;5038485;28;20053;-65
2021/03/22 03:04:14;;;;;;;25.67;5.25;;;;;;;3.54;81.87;102003.03;5034749;28;20434;-65
2021/03/22 03:06:47;;;;;;;24.25;5.15;;;;;;;3.51;81.66;102003.81;5044485;28;20044;-63
2021/03/22 03:09:15;;;;;;;25.20;5.57;;;;;;;3.49;81.82;102008.06;5052850;28;20045;-65
2021/03/22 03:11:41;;;;;;;20.67;4.72;;;;;;;3.50;81.96;102007.19;5047677;28;20045;-64
2021/03/22 03:14:07;;;;;;;25.80;5.80;;;;;;;3.50;82.03;102011.50;5043336;28;20053;-64
2021/03/22 03:16:33;;;;;;;20.40;4.57;;;;;;;3.43;82.16;102013.00;5031982;28;20514;-65
2021/03/22 03:19:00;;;;;;;27.75;4.68;;;;;;;3.36;81.77;102024.78;5032826;28;20053;-65
2021/03/22 03:21:26;;;;;;;25.13;4.75;;;;;;;3.37;82.30;102025.66;5049698;28;20456;-65
2021/03/22 03:23:53;;;;;;;26.60;6.15;;;;;;;3.35;82.25;102020.47;5051273;28;20059;-65
2021/03/22 03:26:19;;;;;;;33.03;5.10;;;;;;;3.29;82.09;102016.84;5038177;28;20045;-65
2021/03/22 03:28:45;;;;;;;23.58;3.70;;;;;;;3.22;82.17;102020.91;5031973;28;20111;-65
2021/03/22 03:31:12;;;;;;;30.60;5.32;;;;;;;3.20;82.89;102025.13;5037462;28;20442;-64
2021/03/22 03:33:38;;;;;;;26.85;5.57;;;;;;;3.21;82.62;102025.16;5051889;28;20079;-65
2021/03/22 03:36:04;;;;;;;23.27;5.13;;;;;;;3.23;82.69;102022.66;5036164;28;20099;-65
2021/03/22 03:38:31;;;;;;;28.27;3.97;;;;;;;3.23;82.74;102022.66;5050701;28;20067;-65
2021/03/22 03:40:57;;;;;;;29.50;5.80;;;;;;;3.18;82.75;102016.50;5041249;28;20064;-65
2021/03/22 03:43:23;;;;;;;22.50;4.90;;;;;;;3.19;82.71;102020.81;5031525;28;20058;-65
2021/03/22 03:45:53;;;;;;;20.73;5.65;;;;;;;3.19;83.19;102025.94;5035002;28;20140;-66
2021/03/22 03:48:24;;;;;;;19.85;4.75;;;;;;;3.18;83.37;102017.38;5031620;28;20050;-65
2021/03/22 03:50:52;;;;;;;31.08;5.22;;;;;;;3.19;83.32;102018.25;5032244;28;20057;-64
2021/03/22 03:53:18;;;;;;;24.52;5.47;;;;;;;3.21;83.54;102025.16;5043087;28;20052;-64
2021/03/22 03:55:46;;;;;;;29.13;5.10;;;;;;;3.24;83.92;102021.84;5039551;28;20505;-63
2021/03/22 03:58:12;;;;;;;25.67;5.13;;;;;;;3.34;83.17;102029.03;5043508;28;20056;-64
2021/03/22 04:00:43;;;;;;;25.45;5.65;;;;;;;3.33;83.31;102023.81;5051609;28;20147;-64
2021/03/22 04:03:18;;;;;;;29.45;6.50;;;;;;;3.36;83.54;102026.50;5051991;28;20056;-64
2021/03/22 04:05:44;;;;;;;24.58;5.45;;;;;;;3.25;83.57;102029.59;5037717;28;20049;-64
2021/03/22 04:08:10;;;;;;;29.58;5.45;;;;;;;3.31;83.78;102023.78;5045078;28;20121;-64
2021/03/22 04:10:36;;;;;;;31.98;5.10;;;;;;;3.33;83.73;102022.13;5050107;28;20495;-64
2021/03/22 04:13:03;;;;;;;22.73;5.43;;;;;;;3.33;84.15;102024.72;5050880;28;20091;-65
2021/03/22 04:15:30;;;;;;;24.52;4.97;;;;;;;3.37;83.94;102017.97;5051507;28;20095;-64
2021/03/22 04:17:56;;;;;;;37.45;6.22;;;;;;;3.39;83.52;102024.88;5043616;28;20045;-63
2021/03/22 04:20:21;;;;;;;25.02;5.13;;;;;;;3.41;84.12;102028.38;5042565;28;20048;-64
2021/03/22 04:22:47;;;;;;;27.42;5.18;;;;;;;3.47;83.49;102026.81;5051190;28;20145;-64
2021/03/22 04:25:14;;;;;;;23.02;5.97;;;;;;;3.42;84.05;102029.25;5043991;28;20141;-64
2021/03/22 04:27:40;;;;;;;22.90;5.25;;;;;;;3.36;84.25;102027.34;5040949;28;20051;-64
2021/03/22 04:30:09;;;;;;;30.85;5.35;;;;;;;3.33;84.25;102029.84;5037020;28;20041;-64
2021/03/22 04:32:35;;;;;;;29.20;6.30;;;;;;;3.33;84.32;102027.28;5050644;28;20726;-64
2021/03/22 04:35:01;;;;;;;29.38;6.15;;;;;;;3.38;84.51;102032.56;5041569;28;20670;-64
2021/03/22 04:37:27;;;;;;;33.15;7.93;;;;;;;3.29;84.40;102032.28;5038754;28;20094;-64
2021/03/22 04:39:53;;;;;;;40.83;6.57;;;;;;;3.30;84.79;102036.56;5049034;28;20076;-64
2021/03/22 04:42:19;;;;;;;32.75;5.85;;;;;;;3.31;84.85;102034.06;5040893;28;20044;-64
2021/03/22 04:44:45;;;;;;;27.52;7.07;;;;;;;3.30;85.22;102036.56;5049107;28;20552;-64
2021/03/22 04:47:12;;;;;;;25.63;6.57;;;;;;;3.29;85.41;102038.28;5038967;28;20504;-64
2021/03/22 04:49:38;;;;;;;30.70;6.80;;;;;;;3.37;85.40;102039.38;5050277;28;20055;-64
2021/03/22 04:52:04;;;;;;;29.88;6.53;;;;;;;3.40;85.00;102042.06;5047211;28;20044;-64
2021/03/22 04:54:30;;;;;;;26.02;5.68;;;;;;;3.29;86.00;102042.56;5035229;28;20053;-65
2021/03/22 04:57:09;;;;;;;28.52;6.30;;;;;;;3.28;86.14;102041.69;5047916;28;20045;-66
2021/03/22 04:59:35;;;;;;;37.67;8.27;;;;;;;3.25;86.34;102049.28;5043447;28;20491;-65
2021/03/22 05:02:01;;;;;;;31.45;7.07;;;;;;;3.24;86.70;102039.84;5049246;28;20044;-65
2021/03/22 05:04:28;;;;;;;20.40;5.63;;;;;;;3.26;86.21;102040.75;5041499;28;20056;-65
2021/03/22 05:06:54;;;;;;;31.08;6.10;;;;;;;3.27;86.05;102042.50;5046191;28;20045;-65
2021/03/22 05:09:20;;;;;;;27.13;7.72;;;;;;;3.32;85.96;102038.38;5042461;28;20045;-65
2021/03/22 05:11:46;;;;;;;24.45;5.70;;;;;;;3.29;86.71;102038.28;5044506;28;20053;-64
2021/03/22 05:14:12;;;;;;;35.10;6.95;;;;;;;3.34;86.34;102041.88;5044152;28;20045;-65
2021/03/22 05:16:38;;;;;;;33.85;7.93;;;;;;;3.27;86.84;102039.91;5043866;28;20052;-64
2021/03/22 05:19:04;;;;;;;27.10;7.00;;;;;;;3.33;86.03;102039.25;5041871;28;20045;-65
2021/03/22 05:21:30;;;;;;;23.38;6.78;;;;;;;3.24;86.20;102039.84;5040169;28;20041;-65
2021/03/22 05:23:56;;;;;;;35.20;9.45;;;;;;;3.26;86.75;102043.31;5038096;28;20049;-65
2021/03/22 05:26:22;;;;;;;42.10;9.30;;;;;;;3.21;86.83;102044.88;5044414;28;20076;-65
2021/03/22 05:28:48;;;;;;;29.38;6.70;;;;;;;3.20;87.28;102043.13;5037999;28;20046;-65
2021/03/22 05:31:14;;;;;;;29.27;6.78;;;;;;;3.19;87.11;102041.38;5042039;28;20048;-65
2021/03/22 05:33:40;;;;;;;28.23;6.47;;;;;;;3.19;86.89;102043.94;5038485;28;20101;-65
2021/03/22 05:36:07;;;;;;;28.52;7.30;;;;;;;3.14;87.03;102046.38;5036120;28;20474;-65
2021/03/22 05:38:34;;;;;;;34.33;8.13;;;;;;;3.11;87.08;102043.69;5040762;28;20041;-66
2021/03/22 05:41:02;;;;;;;37.45;7.70;;;;;;;3.15;87.02;102042.97;5040583;28;20053;-65
2021/03/22 05:43:58;;;;;;;31.55;8.70;;;;;;;3.14;87.35;102037.81;5040624;28;20502;-64
2021/03/22 05:46:46;;;;;;;36.20;7.47;;;;;;;3.20;87.44;102038.84;5039174;28;20055;-64
2021/03/22 05:49:23;;;;;;;40.38;7.28;;;;;;;3.17;87.33;102043.03;5041257;28;20087;-65
2021/03/22 05:52:11;;;;;;;34.40;7.47;;;;;;;3.25;86.45;102041.56;5035040;28;20202;-64
2021/03/22 05:55:01;;;;;;;25.13;7.65;;;;;;;3.29;86.54;102043.44;5039263;28;20118;-64
2021/03/22 05:57:42;;;;;;;24.77;7.60;;;;;;;3.25;86.37;102042.47;5039203;28;20103;-65
2021/03/22 06:00:25;;;;;;;29.30;6.93;;;;;;;3.21;86.11;102034.59;5041902;28;20048;-65
2021/03/22 06:02:58;;;;;;;28.23;7.63;;;;;;;3.25;86.29;102045.03;5035404;28;20117;-64
2021/03/22 06:05:37;;;;;;;28.35;7.30;;;;;;;3.26;86.07;102044.22;5036999;28;20037;-64
2021/03/22 06:08:23;;;;;;;30.15;7.07;;;;;;;3.21;86.21;102044.88;5041224;28;20041;-64
2021/03/22 06:10:51;;;;;;;36.63;7.90;;;;;;;3.19;86.63;102051.66;5038060;28;20056;-66
2021/03/22 06:13:25;;;;;;;37.80;8.43;;;;;;;3.06;86.83;102053.81;5040060;28;20041;-65
2021/03/22 06:15:55;;;;;;;39.70;8.88;;;;;;;3.07;87.58;102052.16;5038953;28;20049;-65
2021/03/22 06:18:28;;;;;;;24.02;8.45;;;;;;;3.08;87.21;102059.91;5036815;28;20053;-65
2021/03/22 06:20:57;;;;;;;35.72;7.65;;;;;;;3.13;87.54;102057.47;5039035;28;20048;-65
2021/03/22 06:23:29;;;;;;;28.45;8.63;;;;;;;3.10;87.35;102060.81;5039987;28;20053;-65
2021/03/22 06:25:57;;;;;;;29.58;8.13;;;;;;;3.13;87.39;102059.19;5039217;28;20453;-65
2021/03/22 06:28:27;;;;;;;31.38;8.07;;;;;;;3.09;87.46;102063.34;5039880;28;20064;-65
2021/03/22 06:31:01;;;;;;;32.97;7.75;;;;;;;3.14;87.24;102066.09;5042448;28;20148;-66
2021/03/22 06:33:30;;;;;;;35.55;9.85;;;;;;;3.17;87.36;102066.16;5040988;28;20212;-66
2021/03/22 06:35:56;;;;;;;33.33;9.20;;;;;;;3.13;87.50;102075.47;5038966;28;20567;-64
2021/03/22 06:38:22;;;;;;;38.22;7.63;;;;;;;3.20;86.87;102077.41;5038690;28;20049;-64
2021/03/22 06:40:48;;;;;;;39.75;9.35;;;;;;;3.20;86.93;102071.41;5040487;28;20049;-65
2021/03/22 06:43:18;;;;;;;39.40;8.02;;;;;;;3.22;87.40;102077.47;5040768;28;20056;-65
2021/03/22 06:45:46;;;;;;;35.00;9.32;;;;;;;3.29;87.25;102082.00;5040737;28;20070;-65
2021/03/22 06:48:20;;;;;;;37.55;9.52;;;;;;;3.33;87.49;102075.25;5038564;28;20084;-66
2021/03/22 06:50:47;;;;;;;37.75;9.20;;;;;;;3.37;87.11;102069.41;5038707;28;20041;-65
2021/03/22 06:53:32;;;;;;;38.75;10.10;;;;;;;3.47;87.52;102081.72;5042161;28;20130;-65
2021/03/22 06:56:14;;;;;;;36.60;9.35;;;;;;;3.47;87.34;102086.88;5040643;28;20063;-64
2021/03/22 06:58:41;;;;;;;30.83;9.23;;;;;;;3.62;86.69;102086.47;5032398;28;20046;-66
2021/03/22 07:01:16;;;;;;;32.55;8.95;;;;;;;3.65;86.71;102086.56;5039445;28;20041;-64
2021/03/22 07:03:43;;;;;;;30.08;8.32;;;;;;;3.72;86.81;102079.91;5037061;28;20053;-65
2021/03/22 07:06:15;;;;;;;27.23;7.43;;;;;;;3.76;85.06;102079.19;5038462;28;20528;-64
2021/03/22 07:08:42;;;;;;;23.20;7.35;;;;;;;3.73;84.96;102081.66;5039452;28;20049;-64
2021/03/22 07:11:10;;;;;;;30.15;8.60;;;;;;;3.77;85.88;102087.75;5044425;28;20458;-63
2021/03/22 07:13:37;;;;;;;31.55;8.48;;;;;;;3.86;85.75;102078.63;5039128;28;20055;-64
2021/03/22 07:16:17;;;;;;;26.20;7.85;;;;;;;3.90;85.24;102069.31;5041533;28;20533;-64
2021/03/22 07:19:04;;;;;;;26.40;7.40;;;;;;;4.03;84.61;102081.72;5044156;28;20053;-64
2021/03/22 07:21:32;;;;;;;25.45;7.80;;;;;;;4.00;84.94;102078.16;5039700;28;20064;-65
2021/03/22 07:24:20;;;;;;;29.38;6.97;;;;;;;4.02;84.56;102077.41;5041614;28;20054;-65
2021/03/22 07:27:03;;;;;;;25.05;6.75;;;;;;;4.14;84.58;102078.59;5042339;28;20036;-65
2021/03/22 07:30:01;;;;;;;18.40;5.22;;;;;;;4.18;83.87;102081.31;5041802;28;20056;-64
2021/03/22 07:32:49;;;;;;;23.77;7.00;;;;;;;4.24;84.00;102090.91;5043205;28;20056;-65
2021/03/22 07:35:50;;;;;;;28.17;6.20;;;;;;;4.32;84.37;102094.56;5039398;28;20056;-62
2021/03/22 07:38:27;;;;;;;25.67;5.47;;;;;;;4.41;83.73;102090.50;5033838;28;20060;-64
2021/03/22 07:40:59;;;;;;;22.83;5.65;;;;;;;4.41;82.73;102095.66;5041353;28;20056;-64
2021/03/22 07:43:43;;;;;;;23.17;6.00;;;;;;;4.42;83.32;102087.09;5043048;28;20072;-63
2021/03/22 07:46:25;;;;;;;22.98;5.72;;;;;;;4.41;82.71;102087.94;5046350;28;20106;-64
2021/03/22 07:49:09;;;;;;;21.60;5.28;;;;;;;4.42;82.50;102087.09;5041456;28;20124;-64
2021/03/22 07:51:56;;;;;;;18.30;6.70;;;;;;;4.48;82.60;102087.25;5043480;28;20055;-64
2021/03/22 07:54:34;;;;;;;24.67;5.28;;;;;;;4.65;81.35;102078.28;5045760;28;20063;-64
2021/03/22 07:57:06;;;;;;;22.92;5.05;;;;;;;4.71;80.91;102087.03;5038977;28;20047;-65
2021/03/22 07:59:43;;;;;;;19.38;5.05;;;;;;;4.77;80.99;102084.59;5041491;28;20049;-63
2021/03/22 08:02:22;;;;;;;24.83;7.43;;;;;;;5.00;80.68;102094.66;5047657;28;20048;-65
2021/03/22 08:04:56;;;;;;;18.30;5.07;;;;;;;5.07;79.69;102081.97;5042525;28;20067;-63
2021/03/22 08:07:46;;;;;;;23.00;5.68;;;;;;;5.18;79.85;102078.78;5040557;28;20046;-66
2021/03/22 08:10:35;;;;;;;16.48;5.05;;;;;;;5.36;78.83;102083.50;5045417;28;20049;-64
2021/03/22 08:13:11;;;;;;;12.43;3.40;;;;;;;5.43;76.35;102083.69;5039763;28;20100;-66
2021/03/22 08:15:46;;;;;;;14.95;3.55;;;;;;;5.41;76.97;102093.09;5042115;28;20416;-66
2021/03/22 08:18:26;;;;;;;14.40;3.85;;;;;;;5.40;75.91;102090.50;5040186;28;20041;-65
2021/03/22 08:21:00;;;;;;;13.57;3.05;;;;;;;5.28;75.70;102096.22;5037880;28;20063;-64
2021/03/22 08:23:32;;;;;;;10.30;3.33;;;;;;;5.07;76.51;102110.34;5041874;28;20060;-64
2021/03/22 08:26:03;;;;;;;9.80;3.38;;;;;;;4.92;77.20;102109.91;5044048;28;20049;-64
2021/03/22 08:28:37;;;;;;;8.13;2.97;;;;;;;5.00;76.91;102100.66;5038878;28;20054;-64
2021/03/22 08:31:09;;;;;;;11.10;2.53;;;;;;;4.97;77.75;102109.19;5046708;28;20075;-64
2021/03/22 08:33:41;;;;;;;18.48;3.00;;;;;;;4.98;77.46;102113.53;5047748;28;20413;-64
2021/03/22 08:36:29;;;;;;;12.68;3.55;;;;;;;5.00;76.85;102108.41;5046757;28;20046;-64
2021/03/22 08:39:01;;;;;;;10.63;2.92;;;;;;;5.11;76.98;102108.69;5044750;28;20045;-65
2021/03/22 08:41:32;;;;;;;12.02;2.95;;;;;;;5.24;76.40;102103.00;5046332;28;20052;-65
2021/03/22 08:44:16;;;;;;;8.07;2.55;;;;;;;5.48;75.14;102114.75;5049455;28;20045;-64
2021/03/22 08:46:48;;;;;;;12.93;2.35;;;;;;;5.69;74.57;102111.81;5048190;28;20052;-63
2021/03/22 08:49:22;;;;;;;5.47;1.55;;;;;;;5.78;72.90;102124.06;5045257;28;20045;-63
2021/03/22 08:51:52;;;;;;;5.47;1.40;;;;;;;5.86;72.33;102122.53;5048895;28;20049;-63
2021/03/22 08:54:27;;;;;;;6.00;1.52;;;;;;;5.90;72.05;102113.13;5048017;28;20102;-64
2021/03/22 08:57:03;;;;;;;9.23;1.67;;;;;;;6.01;70.90;102127.19;5049305;28;20053;-65
2021/03/22 08:59:29;;;;;;;4.90;1.13;;;;;;;5.98;69.58;102110.72;5046446;28;20064;-63
2021/03/22 09:02:15;;;;;;;8.57;1.40;;;;;;;6.07;69.76;102123.88;5044710;28;20049;-67
2021/03/22 09:04:42;;;;;;;5.93;2.13;;;;;;;6.24;69.67;102113.91;5048058;28;20632;-64
2021/03/22 09:07:26;;;;;;;5.53;1.85;;;;;;;6.27;69.87;102114.00;5043684;28;20129;-65
2021/03/22 09:10:13;;;;;;;12.60;3.70;;;;;;;6.33;71.61;102121.00;5045957;28;20061;-66
2021/03/22 09:12:46;;;;;;;8.75;3.42;;;;;;;6.20;72.65;102122.44;5051855;28;20064;-65
2021/03/22 09:15:21;;;;;;;13.48;3.47;;;;;;;6.21;73.21;102121.59;5047116;28;20052;-65
2021/03/22 09:18:14;;;;;;;11.70;3.28;;;;;;;6.26;73.16;102120.00;5041965;28;20469;-66
2021/03/22 09:21:18;;;;;;;13.52;3.85;;;;;;;6.26;72.79;102125.16;5046893;28;20525;-65
2021/03/22 09:23:45;;;;;;;7.72;2.70;;;;;;;6.33;72.41;102121.00;5047993;28;20134;-65
2021/03/22 09:26:12;;;;;;;14.82;3.50;;;;;;;6.34;72.40;102125.28;5044949;28;20083;-66
2021/03/22 09:28:50;;;;;;;13.57;4.07;;;;;;;6.19;71.81;102125.84;5041584;28;20488;-66
2021/03/22 09:31:49;;;;;;;13.32;2.75;;;;;;;6.02;72.40;102125.50;5043135;28;20101;-66
2021/03/22 09:34:48;;;;;;;14.52;3.05;;;;;;;6.07;72.99;102136.78;5044177;28;20068;-64
2021/03/22 09:37:52;;;;;;;11.18;3.38;;;;;;;6.14;73.55;102120.56;5042591;28;20056;-67
2021/03/22 09:40:51;;;;;;;13.07;3.15;;;;;;;6.46;73.42;102128.13;5043837;28;20040;-66
2021/03/22 09:43:38;;;;;;;9.18;2.97;;;;;;;6.51;69.83;102128.22;5041787;28;20164;-64
2021/03/22 09:46:27;;;;;;;5.80;1.67;;;;;;;6.65;68.13;102128.50;5041423;28;20057;-65
2021/03/22 09:49:13;;;;;;;8.65;2.25;;;;;;;6.72;67.07;102130.38;5041693;28;20053;-66
2021/03/22 09:51:46;;;;;;;7.90;1.63;;;;;;;6.72;67.07;102121.75;5039674;28;20457;-65
2021/03/22 09:54:31;;;;;;;10.90;2.75;;;;;;;6.85;66.11;102123.72;5042031;28;20065;-66
2021/03/22 09:57:36;;;;;;;8.77;1.70;;;;;;;6.87;65.45;102128.91;5042423;28;20554;-65
2021/03/22 10:00:20;;;;;;;10.95;2.10;;;;;;;6.70;66.10;102129.47;5038389;28;20069;-64
2021/03/22 10:02:50;;;;;;;7.67;1.50;;;;;;;6.62;67.27;102128.47;5040326;28;20041;-64
2021/03/22 10:05:18;;;;;;;12.15;2.10;;;;;;;6.60;66.46;102143.06;5036822;28;20717;-66
2021/03/22 10:07:58;;;;;;;10.48;1.92;;;;;;;6.52;66.69;102146.38;5038371;28;20056;-65
2021/03/22 10:10:29;;;;;;;8.55;2.08;;;;;;;6.49;66.59;102146.31;5040831;28;20045;-66
2021/03/22 10:13:09;;;;;;;7.28;1.63;;;;;;;6.58;66.33;102147.31;5042360;28;20060;-66
2021/03/22 10:15:48;;;;;;;6.32;1.63;;;;;;;6.59;66.49;102146.50;5036499;28;20095;-65
2021/03/22 10:18:22;;;;;;;8.27;1.63;;;;;;;6.60;67.32;102148.25;5035480;28;20113;-66
2021/03/22 10:20:50;;;;;;;9.52;2.08;;;;;;;6.73;66.99;102139.91;5043776;28;20498;-65
2021/03/22 10:23:25;;;;;;;10.32;2.03;;;;;;;6.92;66.88;102141.09;5037179;28;20080;-66
2021/03/22 10:25:52;;;;;;;;;;;;;;;7.21;65.22;102140.75;5040568;28;20053;-67
2021/03/22 10:28:22;;;;;;;8.23;1.55;;;;;;;7.13;64.88;102143.22;5044264;28;19920;-65
2021/03/22 10:30:54;;;;;;;5.60;1.45;;;;;;;7.28;63.60;102144.31;5040016;28;20488;-65
2021/03/22 10:33:21;;;;;;;5.00;1.33;;;;;;;7.13;63.49;102153.56;5037328;28;20045;-65
2021/03/22 10:35:49;;;;;;;5.22;1.60;;;;;;;7.06;64.34;102149.09;5037123;28;20049;-65
2021/03/22 10:38:18;;;;;;;6.72;1.92;;;;;;;6.87;65.37;102136.69;5040476;28;20128;-67
2021/03/22 10:40:45;;;;;;;6.70;2.05;;;;;;;6.91;65.24;102143.66;5038125;28;20111;-65
2021/03/22 10:43:25;;;;;;;6.43;1.83;;;;;;;6.93;65.35;102148.00;5043621;28;20371;-66
2021/03/22 10:45:51;;;;;;;6.10;1.60;;;;;;;6.89;65.26;102142.75;5048374;28;20049;-65
2021/03/22 10:48:24;;;;;;;3.65;1.20;;;;;;;7.07;64.60;102144.81;5039469;28;20044;-66
2021/03/22 10:50:59;;;;;;;7.80;1.27;;;;;;;7.34;64.07;102144.41;5040385;28;20095;-64
2021/03/22 10:53:25;;;;;;;6.35;1.30;;;;;;;7.35;63.36;102146.16;5042677;28;20156;-66
2021/03/22 10:55:51;;;;;;;3.75;1.20;;;;;;;7.40;63.23;102144.53;5041576;28;20041;-65
2021/03/22 10:58:26;;;;;;;8.70;1.58;;;;;;;7.47;62.49;102148.97;5045014;28;20578;-65
2021/03/22 11:00:58;;;;;;;6.85;1.52;;;;;;;7.70;62.97;102147.56;5043323;28;20422;-65
2021/03/22 11:03:25;;;;;;;8.75;1.83;;;;;;;7.69;62.15;102141.53;5045492;28;20053;-66
2021/03/22 11:05:54;;;;;;;5.78;1.40;;;;;;;7.57;62.81;102147.41;5041330;28;20045;-67
2021/03/22 11:08:25;;;;;;;5.82;1.60;;;;;;;7.77;61.51;102149.44;5041127;28;20331;-66
2021/03/22 11:11:00;;;;;;;8.25;1.40;;;;;;;7.59;62.35;102150.00;5040948;28;20043;-66
2021/03/22 11:13:28;;;;;;;;;;;;;;;7.39;63.02;102152.25;5045871;28;20814;-65
2021/03/22 11:15:55;;;;;;;5.25;1.65;;;;;;;7.33;63.87;102153.03;5044771;28;19920;-65
2021/03/22 11:18:22;;;;;;;8.75;1.92;;;;;;;7.47;64.19;102156.72;5041789;28;20045;-65
2021/03/22 11:20:51;;;;;;;10.80;2.80;;;;;;;7.62;64.22;102155.25;5048029;22;20578;-61
2021/03/22 11:23:24;;;;;;;8.65;2.40;;;;;;;7.84;69.86;102163.31;5019061;28;20065;-64
2021/03/22 11:25:51;;;;;;;7.60;1.98;;;;;;;8.56;68.44;102166.06;5023373;28;20052;-63
2021/03/22 11:28:30;;;;;;;7.78;1.90;;;;;;;9.11;67.12;102158.03;5022009;28;20461;-63
2021/03/22 11:31:05;;;;;;;9.88;1.90;;;;;;;9.48;64.31;102160.09;5030431;28;20045;-65
2021/03/22 11:33:35;;;;;;;;;;;;;;;9.91;63.04;102157.81;5026041;28;20046;-66
2021/03/22 11:36:06;;;;;;;9.50;1.98;;;;;;;10.19;62.60;102160.56;5025087;28;19960;-64
2021/03/22 11:38:35;;;;;;;14.48;3.00;;;;;;;10.05;62.77;102160.50;5027569;28;20049;-63
2021/03/22 11:41:02;;;;;;;8.32;2.15;;;;;;;10.10;62.69;102163.13;5030088;28;20099;-64
2021/03/22 11:43:31;;;;;;;15.68;3.53;;;;;;;10.03;61.25;102166.56;5031090;28;20049;-63
2021/03/22 11:46:13;;;;;;;9.55;2.30;;;;;;;9.96;61.83;102170.84;5027383;28;20681;-61
2021/03/22 11:48:40;;;;;;;7.35;2.17;;;;;;;10.23;61.77;102174.47;5021512;28;20042;-63
2021/03/22 11:51:08;;;;;;;14.98;3.47;;;;;;;10.34;59.54;102174.50;5023094;28;20045;-54